sensor_id;sensor_type;location;lat;lon;timestamp;temperature;humidity
64499;SHT31;51087;55.718;21.122;2023-06-10T00:00:33;11.90;63.66
64499;SHT31;51087;55.718;21.122;2023-06-10T00:03:00;11.85;63.73
64499;SHT31;51087;55.718;21.122;2023-06-10T00:05:25;11.83;63.75
64499;SHT31;51087;55.718;21.122;2023-06-10T00:07:55;11.89;63.73
64499;SHT31;51087;55.718;21.122;2023-06-10T00:10:21;11.83;63.97
64499;SHT31;51087;55.718;21.122;2023-06-10T00:12:47;11.82;64.17
64499;SHT31;51087;55.718;21.122;2023-06-10T00:15:13;11.74;64.32
64499;SHT31;51087;55.718;21.122;2023-06-10T00:17:38;11.68;64.41
64499;SHT31;51087;55.718;21.122;2023-06-10T00:20:08;11.65;64.64
64499;SHT31;51087;55.718;21.122;2023-06-10T00:22:34;11.61;64.84
64499;SHT31;51087;55.718;21.122;2023-06-10T00:24:59;11.58;64.95
64499;SHT31;51087;55.718;21.122;2023-06-10T00:27:25;11.62;64.86
64499;SHT31;51087;55.718;21.122;2023-06-10T00:29:56;11.65;64.63
64499;SHT31;51087;55.718;21.122;2023-06-10T00:32:21;11.67;64.94
64499;SHT31;51087;55.718;21.122;2023-06-10T00:34:47;11.64;64.69
64499;SHT31;51087;55.718;21.122;2023-06-10T00:37:12;11.71;64.69
64499;SHT31;51087;55.718;21.122;2023-06-10T00:39:38;11.62;64.96
64499;SHT31;51087;55.718;21.122;2023-06-10T00:42:03;11.61;65.06
64499;SHT31;51087;55.718;21.122;2023-06-10T00:44:32;11.57;65.10
64499;SHT31;51087;55.718;21.122;2023-06-10T00:46:57;11.58;65.16
64499;SHT31;51087;55.718;21.122;2023-06-10T00:49:23;11.60;65.32
64499;SHT31;51087;55.718;21.122;2023-06-10T00:51:48;11.54;65.40
64499;SHT31;51087;55.718;21.122;2023-06-10T00:54:14;11.54;65.51
64499;SHT31;51087;55.718;21.122;2023-06-10T00:56:40;11.54;65.27
64499;SHT31;51087;55.718;21.122;2023-06-10T00:59:08;11.57;65.17
64499;SHT31;51087;55.718;21.122;2023-06-10T01:01:33;11.58;65.02
64499;SHT31;51087;55.718;21.122;2023-06-10T01:03:59;11.48;65.17
64499;SHT31;51087;55.718;21.122;2023-06-10T01:06:47;11.47;65.20
64499;SHT31;51087;55.718;21.122;2023-06-10T01:09:28;11.50;65.05
64499;SHT31;51087;55.718;21.122;2023-06-10T01:12:02;11.45;65.04
64499;SHT31;51087;55.718;21.122;2023-06-10T01:14:33;11.45;64.92
64499;SHT31;51087;55.718;21.122;2023-06-10T01:16:59;11.37;65.28
64499;SHT31;51087;55.718;21.122;2023-06-10T01:19:25;11.35;64.97
64499;SHT31;51087;55.718;21.122;2023-06-10T01:21:51;11.40;64.77
64499;SHT31;51087;55.718;21.122;2023-06-10T01:24:17;11.45;64.19
64499;SHT31;51087;55.718;21.122;2023-06-10T01:26:44;11.45;64.25
64499;SHT31;51087;55.718;21.122;2023-06-10T01:29:24;11.38;64.19
64499;SHT31;51087;55.718;21.122;2023-06-10T01:31:52;11.40;64.12
64499;SHT31;51087;55.718;21.122;2023-06-10T01:34:21;11.37;63.86
64499;SHT31;51087;55.718;21.122;2023-06-10T01:36:49;11.44;63.73
64499;SHT31;51087;55.718;21.122;2023-06-10T01:39:21;11.43;63.44
64499;SHT31;51087;55.718;21.122;2023-06-10T01:41:48;11.44;63.22
64499;SHT31;51087;55.718;21.122;2023-06-10T01:44:23;11.38;63.29
64499;SHT31;51087;55.718;21.122;2023-06-10T01:46:49;11.44;62.72
64499;SHT31;51087;55.718;21.122;2023-06-10T01:49:14;11.40;62.32
64499;SHT31;51087;55.718;21.122;2023-06-10T01:51:40;11.37;62.31
64499;SHT31;51087;55.718;21.122;2023-06-10T01:54:05;11.35;62.25
64499;SHT31;51087;55.718;21.122;2023-06-10T01:56:31;11.24;62.05
64499;SHT31;51087;55.718;21.122;2023-06-10T01:58:57;11.28;61.95
64499;SHT31;51087;55.718;21.122;2023-06-10T02:01:28;11.23;61.59
64499;SHT31;51087;55.718;21.122;2023-06-10T02:03:53;11.24;61.10
64499;SHT31;51087;55.718;21.122;2023-06-10T02:06:19;11.34;61.19
64499;SHT31;51087;55.718;21.122;2023-06-10T02:08:45;11.23;60.62
64499;SHT31;51087;55.718;21.122;2023-06-10T02:11:10;11.23;60.85
64499;SHT31;51087;55.718;21.122;2023-06-10T02:13:35;11.30;60.38
64499;SHT31;51087;55.718;21.122;2023-06-10T02:16:01;11.23;60.25
64499;SHT31;51087;55.718;21.122;2023-06-10T02:18:27;11.16;60.42
64499;SHT31;51087;55.718;21.122;2023-06-10T02:20:53;11.27;59.94
64499;SHT31;51087;55.718;21.122;2023-06-10T02:23:18;11.27;59.75
64499;SHT31;51087;55.718;21.122;2023-06-10T02:25:44;11.22;60.30
64499;SHT31;51087;55.718;21.122;2023-06-10T02:28:10;11.26;60.18
64499;SHT31;51087;55.718;21.122;2023-06-10T02:30:35;11.30;60.26
64499;SHT31;51087;55.718;21.122;2023-06-10T02:33:02;11.27;60.40
64499;SHT31;51087;55.718;21.122;2023-06-10T02:35:27;11.30;60.68
64499;SHT31;51087;55.718;21.122;2023-06-10T02:37:52;11.23;60.87
64499;SHT31;51087;55.718;21.122;2023-06-10T02:40:18;11.30;61.05
64499;SHT31;51087;55.718;21.122;2023-06-10T02:42:43;11.31;61.13
64499;SHT31;51087;55.718;21.122;2023-06-10T02:45:09;11.34;61.37
64499;SHT31;51087;55.718;21.122;2023-06-10T02:47:34;11.26;61.60
64499;SHT31;51087;55.718;21.122;2023-06-10T02:50:00;11.26;61.86
64499;SHT31;51087;55.718;21.122;2023-06-10T02:52:25;11.20;62.33
64499;SHT31;51087;55.718;21.122;2023-06-10T02:54:50;11.24;62.24
64499;SHT31;51087;55.718;21.122;2023-06-10T02:57:16;11.23;62.50
64499;SHT31;51087;55.718;21.122;2023-06-10T02:59:41;11.20;62.71
64499;SHT31;51087;55.718;21.122;2023-06-10T03:02:07;11.22;62.88
64499;SHT31;51087;55.718;21.122;2023-06-10T03:04:33;11.20;63.08
64499;SHT31;51087;55.718;21.122;2023-06-10T03:06:58;11.27;63.25
64499;SHT31;51087;55.718;21.122;2023-06-10T03:09:25;11.30;63.25
64499;SHT31;51087;55.718;21.122;2023-06-10T03:11:51;11.34;63.36
64499;SHT31;51087;55.718;21.122;2023-06-10T03:14:16;11.31;63.37
64499;SHT31;51087;55.718;21.122;2023-06-10T03:16:42;11.33;63.25
64499;SHT31;51087;55.718;21.122;2023-06-10T03:19:08;11.40;63.14
64499;SHT31;51087;55.718;21.122;2023-06-10T03:21:34;11.38;63.08
64499;SHT31;51087;55.718;21.122;2023-06-10T03:24:00;11.40;63.20
64499;SHT31;51087;55.718;21.122;2023-06-10T03:26:26;11.45;63.10
64499;SHT31;51087;55.718;21.122;2023-06-10T03:28:52;11.44;63.16
64499;SHT31;51087;55.718;21.122;2023-06-10T03:31:18;11.51;63.07
64499;SHT31;51087;55.718;21.122;2023-06-10T03:33:43;11.55;62.93
64499;SHT31;51087;55.718;21.122;2023-06-10T03:36:09;11.58;62.96
64499;SHT31;51087;55.718;21.122;2023-06-10T03:38:35;11.62;62.86
64499;SHT31;51087;55.718;21.122;2023-06-10T03:41:00;11.62;62.74
64499;SHT31;51087;55.718;21.122;2023-06-10T03:43:26;11.67;62.41
64499;SHT31;51087;55.718;21.122;2023-06-10T03:45:52;11.64;62.78
64499;SHT31;51087;55.718;21.122;2023-06-10T03:48:18;11.64;62.59
64499;SHT31;51087;55.718;21.122;2023-06-10T03:50:44;11.69;62.34
64499;SHT31;51087;55.718;21.122;2023-06-10T03:53:09;11.69;62.57
64499;SHT31;51087;55.718;21.122;2023-06-10T03:55:35;11.74;62.52
64499;SHT31;51087;55.718;21.122;2023-06-10T03:58:01;11.79;62.46
64499;SHT31;51087;55.718;21.122;2023-06-10T04:00:27;11.83;62.36
64499;SHT31;51087;55.718;21.122;2023-06-10T04:02:54;11.96;62.11
64499;SHT31;51087;55.718;21.122;2023-06-10T04:05:23;11.98;62.01
64499;SHT31;51087;55.718;21.122;2023-06-10T04:07:49;12.03;62.11
64499;SHT31;51087;55.718;21.122;2023-06-10T04:10:15;12.05;62.13
64499;SHT31;51087;55.718;21.122;2023-06-10T04:12:41;12.16;61.90
64499;SHT31;51087;55.718;21.122;2023-06-10T04:15:07;12.20;61.71
64499;SHT31;51087;55.718;21.122;2023-06-10T04:17:33;12.27;61.71
64499;SHT31;51087;55.718;21.122;2023-06-10T04:19:59;12.34;61.53
64499;SHT31;51087;55.718;21.122;2023-06-10T04:22:25;12.38;61.60
64499;SHT31;51087;55.718;21.122;2023-06-10T04:24:51;12.43;61.47
64499;SHT31;51087;55.718;21.122;2023-06-10T04:27:18;12.51;61.31
64499;SHT31;51087;55.718;21.122;2023-06-10T04:29:44;12.54;61.44
64499;SHT31;51087;55.718;21.122;2023-06-10T04:32:09;12.60;61.16
64499;SHT31;51087;55.718;21.122;2023-06-10T04:34:34;12.65;61.22
64499;SHT31;51087;55.718;21.122;2023-06-10T04:37:00;12.68;61.00
64499;SHT31;51087;55.718;21.122;2023-06-10T04:39:26;12.77;61.03
64499;SHT31;51087;55.718;21.122;2023-06-10T04:41:51;12.82;60.60
64499;SHT31;51087;55.718;21.122;2023-06-10T04:44:17;12.89;60.48
64499;SHT31;51087;55.718;21.122;2023-06-10T04:46:42;12.95;60.45
64499;SHT31;51087;55.718;21.122;2023-06-10T04:49:07;12.99;60.33
64499;SHT31;51087;55.718;21.122;2023-06-10T04:51:33;13.08;60.05
64499;SHT31;51087;55.718;21.122;2023-06-10T04:53:58;13.15;60.22
64499;SHT31;51087;55.718;21.122;2023-06-10T04:56:27;13.19;60.07
64499;SHT31;51087;55.718;21.122;2023-06-10T04:58:54;13.26;59.82
64499;SHT31;51087;55.718;21.122;2023-06-10T05:01:19;13.36;59.66
64499;SHT31;51087;55.718;21.122;2023-06-10T05:03:45;13.46;59.46
64499;SHT31;51087;55.718;21.122;2023-06-10T05:06:10;13.46;59.08
64499;SHT31;51087;55.718;21.122;2023-06-10T05:08:35;13.48;59.64
64499;SHT31;51087;55.718;21.122;2023-06-10T05:11:01;13.66;59.18
64499;SHT31;51087;55.718;21.122;2023-06-10T05:13:27;13.74;58.83
64499;SHT31;51087;55.718;21.122;2023-06-10T05:15:52;13.79;59.25
64499;SHT31;51087;55.718;21.122;2023-06-10T05:18:17;13.82;58.44
64499;SHT31;51087;55.718;21.122;2023-06-10T05:20:43;13.94;58.59
64499;SHT31;51087;55.718;21.122;2023-06-10T05:23:08;14.04;58.31
64499;SHT31;51087;55.718;21.122;2023-06-10T05:25:34;14.15;58.05
64499;SHT31;51087;55.718;21.122;2023-06-10T05:28:00;14.28;57.55
64499;SHT31;51087;55.718;21.122;2023-06-10T05:30:25;14.30;57.36
64499;SHT31;51087;55.718;21.122;2023-06-10T05:32:51;14.39;57.55
64499;SHT31;51087;55.718;21.122;2023-06-10T05:35:18;14.47;57.27
64499;SHT31;51087;55.718;21.122;2023-06-10T05:37:43;14.55;57.80
64499;SHT31;51087;55.718;21.122;2023-06-10T05:40:09;14.71;57.58
64499;SHT31;51087;55.718;21.122;2023-06-10T05:42:35;14.71;57.04
64499;SHT31;51087;55.718;21.122;2023-06-10T05:45:01;14.88;57.16
64499;SHT31;51087;55.718;21.122;2023-06-10T05:47:27;14.98;56.99
64499;SHT31;51087;55.718;21.122;2023-06-10T05:49:53;15.02;56.53
64499;SHT31;51087;55.718;21.122;2023-06-10T05:52:18;15.05;56.29
64499;SHT31;51087;55.718;21.122;2023-06-10T05:54:44;15.08;55.72
64499;SHT31;51087;55.718;21.122;2023-06-10T05:57:10;15.15;55.89
64499;SHT31;51087;55.718;21.122;2023-06-10T05:59:36;15.16;55.78
64499;SHT31;51087;55.718;21.122;2023-06-10T06:02:01;15.19;56.35
64499;SHT31;51087;55.718;21.122;2023-06-10T06:04:27;15.40;56.44
64499;SHT31;51087;55.718;21.122;2023-06-10T06:06:52;15.43;55.87
64499;SHT31;51087;55.718;21.122;2023-06-10T06:09:18;15.52;55.20
64499;SHT31;51087;55.718;21.122;2023-06-10T06:11:43;15.49;54.85
64499;SHT31;51087;55.718;21.122;2023-06-10T06:14:10;15.69;54.75
64499;SHT31;51087;55.718;21.122;2023-06-10T06:16:36;15.76;54.66
64499;SHT31;51087;55.718;21.122;2023-06-10T06:19:01;15.80;54.19
64499;SHT31;51087;55.718;21.122;2023-06-10T06:21:26;15.93;54.32
64499;SHT31;51087;55.718;21.122;2023-06-10T06:23:52;15.94;53.80
64499;SHT31;51087;55.718;21.122;2023-06-10T06:26:17;16.04;53.07
64499;SHT31;51087;55.718;21.122;2023-06-10T06:28:43;16.08;53.41
64499;SHT31;51087;55.718;21.122;2023-06-10T06:31:08;16.18;53.30
64499;SHT31;51087;55.718;21.122;2023-06-10T06:33:33;16.21;53.53
64499;SHT31;51087;55.718;21.122;2023-06-10T06:35:59;16.36;52.22
64499;SHT31;51087;55.718;21.122;2023-06-10T06:38:27;16.51;52.39
64499;SHT31;51087;55.718;21.122;2023-06-10T06:40:53;16.60;52.20
64499;SHT31;51087;55.718;21.122;2023-06-10T06:43:18;16.73;50.52
64499;SHT31;51087;55.718;21.122;2023-06-10T06:45:44;16.79;50.77
64499;SHT31;51087;55.718;21.122;2023-06-10T06:48:11;16.85;49.56
64499;SHT31;51087;55.718;21.122;2023-06-10T06:50:37;16.95;50.20
64499;SHT31;51087;55.718;21.122;2023-06-10T06:53:03;17.15;48.97
64499;SHT31;51087;55.718;21.122;2023-06-10T06:55:28;17.20;47.18
64499;SHT31;51087;55.718;21.122;2023-06-10T06:57:53;17.29;46.76
64499;SHT31;51087;55.718;21.122;2023-06-10T07:00:19;17.43;47.06
64499;SHT31;51087;55.718;21.122;2023-06-10T07:02:45;17.48;46.37
64499;SHT31;51087;55.718;21.122;2023-06-10T07:05:10;17.58;46.96
64499;SHT31;51087;55.718;21.122;2023-06-10T07:07:36;17.66;47.28
64499;SHT31;51087;55.718;21.122;2023-06-10T07:10:01;17.77;47.88
64499;SHT31;51087;55.718;21.122;2023-06-10T07:12:27;17.89;46.19
64499;SHT31;51087;55.718;21.122;2023-06-10T07:14:53;17.80;45.58
64499;SHT31;51087;55.718;21.122;2023-06-10T07:17:19;17.83;44.91
64499;SHT31;51087;55.718;21.122;2023-06-10T07:19:45;17.97;44.74
64499;SHT31;51087;55.718;21.122;2023-06-10T07:22:10;18.01;44.97
64499;SHT31;51087;55.718;21.122;2023-06-10T07:24:36;17.97;44.93
64499;SHT31;51087;55.718;21.122;2023-06-10T07:27:01;18.00;44.88
64499;SHT31;51087;55.718;21.122;2023-06-10T07:29:27;18.01;44.66
64499;SHT31;51087;55.718;21.122;2023-06-10T07:31:52;17.97;43.84
64499;SHT31;51087;55.718;21.122;2023-06-10T07:34:18;18.00;44.30
64499;SHT31;51087;55.718;21.122;2023-06-10T07:36:44;17.87;43.56
64499;SHT31;51087;55.718;21.122;2023-06-10T07:39:09;18.01;43.80
64499;SHT31;51087;55.718;21.122;2023-06-10T07:41:35;18.05;42.42
64499;SHT31;51087;55.718;21.122;2023-06-10T07:44:01;18.17;43.02
64499;SHT31;51087;55.718;21.122;2023-06-10T07:46:26;18.31;42.33
64499;SHT31;51087;55.718;21.122;2023-06-10T07:48:53;18.45;43.72
64499;SHT31;51087;55.718;21.122;2023-06-10T07:51:19;18.45;42.08
64499;SHT31;51087;55.718;21.122;2023-06-10T07:53:44;18.45;42.44
64499;SHT31;51087;55.718;21.122;2023-06-10T07:56:10;18.69;42.72
64499;SHT31;51087;55.718;21.122;2023-06-10T07:58:35;18.80;41.92
64499;SHT31;51087;55.718;21.122;2023-06-10T08:01:00;18.83;41.93
64499;SHT31;51087;55.718;21.122;2023-06-10T08:03:26;18.68;43.72
64499;SHT31;51087;55.718;21.122;2023-06-10T08:05:51;18.93;44.66
64499;SHT31;51087;55.718;21.122;2023-06-10T08:08:17;19.02;43.67
64499;SHT31;51087;55.718;21.122;2023-06-10T08:10:42;18.97;43.77
64499;SHT31;51087;55.718;21.122;2023-06-10T08:13:08;19.10;43.43
64499;SHT31;51087;55.718;21.122;2023-06-10T08:15:34;19.08;43.19
64499;SHT31;51087;55.718;21.122;2023-06-10T08:17:59;18.99;43.26
64499;SHT31;51087;55.718;21.122;2023-06-10T08:20:25;19.16;42.21
64499;SHT31;51087;55.718;21.122;2023-06-10T08:22:50;19.24;43.04
64499;SHT31;51087;55.718;21.122;2023-06-10T08:25:15;19.28;43.44
64499;SHT31;51087;55.718;21.122;2023-06-10T08:27:41;19.30;42.76
64499;SHT31;51087;55.718;21.122;2023-06-10T08:30:07;19.36;42.23
64499;SHT31;51087;55.718;21.122;2023-06-10T08:32:33;19.21;42.86
64499;SHT31;51087;55.718;21.122;2023-06-10T08:34:58;19.13;42.64
64499;SHT31;51087;55.718;21.122;2023-06-10T08:37:24;19.30;43.38
64499;SHT31;51087;55.718;21.122;2023-06-10T08:39:49;19.47;43.16
64499;SHT31;51087;55.718;21.122;2023-06-10T08:44:56;19.54;42.46
64499;SHT31;51087;55.718;21.122;2023-06-10T08:47:25;19.78;42.68
64499;SHT31;51087;55.718;21.122;2023-06-10T08:49:51;19.68;41.61
64499;SHT31;51087;55.718;21.122;2023-06-10T08:52:21;19.99;42.13
64499;SHT31;51087;55.718;21.122;2023-06-10T08:54:58;20.07;41.80
64499;SHT31;51087;55.718;21.122;2023-06-10T08:57:25;19.94;41.75
64499;SHT31;51087;55.718;21.122;2023-06-10T08:59:53;20.34;41.60
64499;SHT31;51087;55.718;21.122;2023-06-10T09:02:21;20.55;40.89
64499;SHT31;51087;55.718;21.122;2023-06-10T09:04:47;20.54;41.01
64499;SHT31;51087;55.718;21.122;2023-06-10T09:07:15;20.74;41.58
64499;SHT31;51087;55.718;21.122;2023-06-10T09:09:42;21.06;41.04
64499;SHT31;51087;55.718;21.122;2023-06-10T09:12:08;20.40;40.93
64499;SHT31;51087;55.718;21.122;2023-06-10T09:14:34;20.82;41.03
64499;SHT31;51087;55.718;21.122;2023-06-10T09:17:00;21.19;41.04
64499;SHT31;51087;55.718;21.122;2023-06-10T09:19:26;21.84;40.70
64499;SHT31;51087;55.718;21.122;2023-06-10T09:21:53;21.46;40.95
64499;SHT31;51087;55.718;21.122;2023-06-10T09:24:18;21.75;40.68
64499;SHT31;51087;55.718;21.122;2023-06-10T09:26:44;21.06;40.19
64499;SHT31;51087;55.718;21.122;2023-06-10T09:29:11;21.51;40.69
64499;SHT31;51087;55.718;21.122;2023-06-10T09:31:38;21.37;40.11
64499;SHT31;51087;55.718;21.122;2023-06-10T09:34:12;22.05;39.26
64499;SHT31;51087;55.718;21.122;2023-06-10T09:36:38;22.32;40.11
64499;SHT31;51087;55.718;21.122;2023-06-10T09:39:04;22.60;39.65
64499;SHT31;51087;55.718;21.122;2023-06-10T09:41:34;22.40;38.95
64499;SHT31;51087;55.718;21.122;2023-06-10T09:44:00;22.19;39.77
64499;SHT31;51087;55.718;21.122;2023-06-10T09:46:30;21.43;39.63
64499;SHT31;51087;55.718;21.122;2023-06-10T09:48:57;21.71;38.74
64499;SHT31;51087;55.718;21.122;2023-06-10T09:51:23;22.98;37.89
64499;SHT31;51087;55.718;21.122;2023-06-10T09:53:50;25.56;34.50
64499;SHT31;51087;55.718;21.122;2023-06-10T09:56:15;27.69;31.31
64499;SHT31;51087;55.718;21.122;2023-06-10T09:58:41;29.15;28.99
64499;SHT31;51087;55.718;21.122;2023-06-10T10:01:12;30.09;28.02
64499;SHT31;51087;55.718;21.122;2023-06-10T10:03:48;30.41;27.94
64499;SHT31;51087;55.718;21.122;2023-06-10T10:06:16;31.52;27.40
64499;SHT31;51087;55.718;21.122;2023-06-10T10:08:42;30.77;27.83
64499;SHT31;51087;55.718;21.122;2023-06-10T10:11:08;30.22;28.15
64499;SHT31;51087;55.718;21.122;2023-06-10T10:13:34;31.50;27.78
64499;SHT31;51087;55.718;21.122;2023-06-10T10:16:04;32.72;27.69
64499;SHT31;51087;55.718;21.122;2023-06-10T10:18:31;33.57;26.24
64499;SHT31;51087;55.718;21.122;2023-06-10T10:21:01;33.02;26.14
64499;SHT31;51087;55.718;21.122;2023-06-10T10:23:33;32.01;26.51
64499;SHT31;51087;55.718;21.122;2023-06-10T10:26:00;33.27;25.44
64499;SHT31;51087;55.718;21.122;2023-06-10T10:28:36;30.95;27.58
64499;SHT31;51087;55.718;21.122;2023-06-10T10:31:04;33.16;27.20
64499;SHT31;51087;55.718;21.122;2023-06-10T10:33:57;31.74;27.04
64499;SHT31;51087;55.718;21.122;2023-06-10T10:36:24;33.02;26.01
64499;SHT31;51087;55.718;21.122;2023-06-10T10:38:50;32.17;26.33
64499;SHT31;51087;55.718;21.122;2023-06-10T10:41:16;31.81;26.76
64499;SHT31;51087;55.718;21.122;2023-06-10T10:43:43;31.26;27.32
64499;SHT31;51087;55.718;21.122;2023-06-10T10:46:14;33.81;25.54
64499;SHT31;51087;55.718;21.122;2023-06-10T10:48:40;34.10;24.81
64499;SHT31;51087;55.718;21.122;2023-06-10T10:51:10;34.12;23.83
64499;SHT31;51087;55.718;21.122;2023-06-10T10:53:39;35.09;23.06
64499;SHT31;51087;55.718;21.122;2023-06-10T10:56:13;35.39;23.05
64499;SHT31;51087;55.718;21.122;2023-06-10T10:58:39;33.76;24.44
64499;SHT31;51087;55.718;21.122;2023-06-10T11:01:12;35.58;22.68
64499;SHT31;51087;55.718;21.122;2023-06-10T11:03:44;37.10;22.48
64499;SHT31;51087;55.718;21.122;2023-06-10T11:06:14;35.69;22.88
64499;SHT31;51087;55.718;21.122;2023-06-10T11:11:20;34.96;23.46
64499;SHT31;51087;55.718;21.122;2023-06-10T11:16:26;34.75;23.90
64499;SHT31;51087;55.718;21.122;2023-06-10T11:18:54;33.65;24.63
64499;SHT31;51087;55.718;21.122;2023-06-10T11:21:19;34.63;24.24
64499;SHT31;51087;55.718;21.122;2023-06-10T11:23:45;34.10;24.13
64499;SHT31;51087;55.718;21.122;2023-06-10T11:28:40;35.94;23.27
64499;SHT31;51087;55.718;21.122;2023-06-10T11:31:06;34.26;24.47
64499;SHT31;51087;55.718;21.122;2023-06-10T11:33:32;34.32;25.21
64499;SHT31;51087;55.718;21.122;2023-06-10T11:35:58;34.99;24.16
64499;SHT31;51087;55.718;21.122;2023-06-10T11:38:24;37.32;22.80
64499;SHT31;51087;55.718;21.122;2023-06-10T11:40:49;38.31;21.82
64499;SHT31;51087;55.718;21.122;2023-06-10T11:43:17;36.06;22.87
64499;SHT31;51087;55.718;21.122;2023-06-10T11:45:42;35.32;23.79
64499;SHT31;51087;55.718;21.122;2023-06-10T11:48:09;35.37;23.35
64499;SHT31;51087;55.718;21.122;2023-06-10T11:50:34;35.56;23.31
64499;SHT31;51087;55.718;21.122;2023-06-10T11:53:00;37.17;22.34
64499;SHT31;51087;55.718;21.122;2023-06-10T11:55:47;36.42;22.70
64499;SHT31;51087;55.718;21.122;2023-06-10T11:58:20;38.59;21.10
64499;SHT31;51087;55.718;21.122;2023-06-10T12:00:55;37.14;21.96
64499;SHT31;51087;55.718;21.122;2023-06-10T12:03:26;36.56;22.16
64499;SHT31;51087;55.718;21.122;2023-06-10T12:06:02;36.65;22.70
64499;SHT31;51087;55.718;21.122;2023-06-10T12:08:28;37.14;21.87
64499;SHT31;51087;55.718;21.122;2023-06-10T12:10:55;35.64;23.14
64499;SHT31;51087;55.718;21.122;2023-06-10T12:13:20;35.29;23.12
64499;SHT31;51087;55.718;21.122;2023-06-10T12:15:47;34.61;23.46
64499;SHT31;51087;55.718;21.122;2023-06-10T12:18:19;35.70;23.08
64499;SHT31;51087;55.718;21.122;2023-06-10T12:20:45;34.26;24.38
64499;SHT31;51087;55.718;21.122;2023-06-10T12:23:12;37.04;22.64
64499;SHT31;51087;55.718;21.122;2023-06-10T12:25:38;34.40;23.37
64499;SHT31;51087;55.718;21.122;2023-06-10T12:28:04;35.46;22.95
64499;SHT31;51087;55.718;21.122;2023-06-10T12:30:30;34.87;23.14
64499;SHT31;51087;55.718;21.122;2023-06-10T12:32:56;37.03;22.01
64499;SHT31;51087;55.718;21.122;2023-06-10T12:35:26;37.08;21.35
64499;SHT31;51087;55.718;21.122;2023-06-10T12:38:02;35.03;21.55
64499;SHT31;51087;55.718;21.122;2023-06-10T12:40:34;34.98;22.15
64499;SHT31;51087;55.718;21.122;2023-06-10T12:43:01;35.22;22.76
64499;SHT31;51087;55.718;21.122;2023-06-10T12:45:33;33.54;23.35
64499;SHT31;51087;55.718;21.122;2023-06-10T12:48:10;35.03;22.05
64499;SHT31;51087;55.718;21.122;2023-06-10T12:50:40;36.59;21.72
64499;SHT31;51087;55.718;21.122;2023-06-10T12:53:06;34.84;22.75
64499;SHT31;51087;55.718;21.122;2023-06-10T12:55:32;37.08;21.80
64499;SHT31;51087;55.718;21.122;2023-06-10T12:57:59;35.35;22.25
64499;SHT31;51087;55.718;21.122;2023-06-10T13:00:25;34.51;22.97
64499;SHT31;51087;55.718;21.122;2023-06-10T13:02:53;35.78;22.24
64499;SHT31;51087;55.718;21.122;2023-06-10T13:05:19;37.77;21.14
64499;SHT31;51087;55.718;21.122;2023-06-10T13:07:45;38.10;20.82
64499;SHT31;51087;55.718;21.122;2023-06-10T13:10:15;37.35;21.07
64499;SHT31;51087;55.718;21.122;2023-06-10T13:12:42;33.73;22.77
64499;SHT31;51087;55.718;21.122;2023-06-10T13:15:07;34.19;22.76
64499;SHT31;51087;55.718;21.122;2023-06-10T13:17:33;36.94;21.92
64499;SHT31;51087;55.718;21.122;2023-06-10T13:20:05;38.65;20.06
64499;SHT31;51087;55.718;21.122;2023-06-10T13:22:32;37.04;20.23
64499;SHT31;51087;55.718;21.122;2023-06-10T13:25:04;36.08;21.16
64499;SHT31;51087;55.718;21.122;2023-06-10T13:27:30;33.88;21.83
64499;SHT31;51087;55.718;21.122;2023-06-10T13:29:56;32.95;22.30
64499;SHT31;51087;55.718;21.122;2023-06-10T13:32:21;33.18;22.41
64499;SHT31;51087;55.718;21.122;2023-06-10T13:34:46;35.39;21.48
64499;SHT31;51087;55.718;21.122;2023-06-10T13:37:12;36.63;21.09
64499;SHT31;51087;55.718;21.122;2023-06-10T13:39:38;36.72;20.32
64499;SHT31;51087;55.718;21.122;2023-06-10T13:42:04;33.35;22.29
64499;SHT31;51087;55.718;21.122;2023-06-10T13:44:30;34.19;22.73
64499;SHT31;51087;55.718;21.122;2023-06-10T13:46:59;33.44;23.35
64499;SHT31;51087;55.718;21.122;2023-06-10T13:49:24;33.93;22.52
64499;SHT31;51087;55.718;21.122;2023-06-10T13:51:50;34.47;22.13
64499;SHT31;51087;55.718;21.122;2023-06-10T13:54:15;33.95;22.21
64499;SHT31;51087;55.718;21.122;2023-06-10T13:56:41;35.42;21.86
64499;SHT31;51087;55.718;21.122;2023-06-10T13:59:06;35.45;20.87
64499;SHT31;51087;55.718;21.122;2023-06-10T14:01:32;34.40;21.66
64499;SHT31;51087;55.718;21.122;2023-06-10T14:03:57;33.79;22.47
64499;SHT31;51087;55.718;21.122;2023-06-10T14:06:23;32.96;23.47
64499;SHT31;51087;55.718;21.122;2023-06-10T14:08:48;32.93;23.34
64499;SHT31;51087;55.718;21.122;2023-06-10T14:11:13;34.13;22.66
64499;SHT31;51087;55.718;21.122;2023-06-10T14:13:40;34.58;22.72
64499;SHT31;51087;55.718;21.122;2023-06-10T14:16:05;35.85;21.23
64499;SHT31;51087;55.718;21.122;2023-06-10T14:18:31;37.77;20.38
64499;SHT31;51087;55.718;21.122;2023-06-10T14:20:56;38.96;19.21
64499;SHT31;51087;55.718;21.122;2023-06-10T14:23:22;39.87;18.76
64499;SHT31;51087;55.718;21.122;2023-06-10T14:25:47;38.82;19.13
64499;SHT31;51087;55.718;21.122;2023-06-10T14:28:12;37.76;19.81
64499;SHT31;51087;55.718;21.122;2023-06-10T14:30:38;35.77;20.35
64499;SHT31;51087;55.718;21.122;2023-06-10T14:33:03;34.37;21.64
64499;SHT31;51087;55.718;21.122;2023-06-10T14:35:29;35.40;21.28
64499;SHT31;51087;55.718;21.122;2023-06-10T14:37:54;35.06;21.06
64499;SHT31;51087;55.718;21.122;2023-06-10T14:40:20;36.25;20.70
64499;SHT31;51087;55.718;21.122;2023-06-10T14:42:48;37.80;19.72
64499;SHT31;51087;55.718;21.122;2023-06-10T14:45:13;35.53;21.00
64499;SHT31;51087;55.718;21.122;2023-06-10T14:47:40;35.80;21.59
64499;SHT31;51087;55.718;21.122;2023-06-10T14:50:05;35.47;21.19
64499;SHT31;51087;55.718;21.122;2023-06-10T14:52:31;34.72;21.43
64499;SHT31;51087;55.718;21.122;2023-06-10T14:54:56;32.20;23.22
64499;SHT31;51087;55.718;21.122;2023-06-10T14:57:22;34.12;22.66
64499;SHT31;51087;55.718;21.122;2023-06-10T14:59:47;34.99;21.13
64499;SHT31;51087;55.718;21.122;2023-06-10T15:02:13;35.80;20.95
64499;SHT31;51087;55.718;21.122;2023-06-10T15:04:38;35.03;21.98
64499;SHT31;51087;55.718;21.122;2023-06-10T15:07:04;35.10;20.93
64499;SHT31;51087;55.718;21.122;2023-06-10T15:09:29;35.32;20.71
64499;SHT31;51087;55.718;21.122;2023-06-10T15:11:55;35.67;20.64
64499;SHT31;51087;55.718;21.122;2023-06-10T15:14:20;35.53;20.71
64499;SHT31;51087;55.718;21.122;2023-06-10T15:16:46;34.33;21.03
64499;SHT31;51087;55.718;21.122;2023-06-10T15:19:11;33.24;21.65
64499;SHT31;51087;55.718;21.122;2023-06-10T15:21:37;32.53;22.29